sensor_id;sensor_type;location;lat;lon;timestamp;pressure;altitude;pressure_sealevel;temperature;humidity
55590;BME280;41452;42.780;23.116;2022-07-06T00:01:09;94416.19;;;19.82;91.30
55590;BME280;41452;42.780;23.116;2022-07-06T00:03:35;94415.63;;;19.85;91.12
55590;BME280;41452;42.780;23.116;2022-07-06T00:06:00;94418.00;;;19.86;91.00
55590;BME280;41452;42.780;23.116;2022-07-06T00:08:26;94389.19;;;19.64;90.26
55590;BME280;41452;42.780;23.116;2022-07-06T00:10:51;94415.63;;;19.85;90.21
55590;BME280;41452;42.780;23.116;2022-07-06T00:13:17;94416.13;;;19.87;90.09
55590;BME280;41452;42.780;23.116;2022-07-06T00:15:42;94397.47;;;19.87;91.29
55590;BME280;41452;42.780;23.116;2022-07-06T00:18:08;94394.03;;;19.86;91.89
55590;BME280;41452;42.780;23.116;2022-07-06T00:20:33;94393.00;;;19.82;92.10
55590;BME280;41452;42.780;23.116;2022-07-06T00:22:58;94386.44;;;19.74;91.93
55590;BME280;41452;42.780;23.116;2022-07-06T00:25:24;94392.72;;;19.84;91.82
55590;BME280;41452;42.780;23.116;2022-07-06T00:27:49;94390.03;;;19.84;91.78
55590;BME280;41452;42.780;23.116;2022-07-06T00:30:15;94383.06;;;19.88;91.38
55590;BME280;41452;42.780;23.116;2022-07-06T00:32:40;94384.38;;;19.90;91.21
55590;BME280;41452;42.780;23.116;2022-07-06T00:35:06;94384.09;;;19.92;90.98
55590;BME280;41452;42.780;23.116;2022-07-06T00:37:31;94378.81;;;19.87;90.70
55590;BME280;41452;42.780;23.116;2022-07-06T00:39:57;94384.44;;;19.85;90.68
55590;BME280;41452;42.780;23.116;2022-07-06T00:42:22;94376.66;;;19.89;90.21
55590;BME280;41452;42.780;23.116;2022-07-06T00:44:49;94377.66;;;19.93;89.96
55590;BME280;41452;42.780;23.116;2022-07-06T00:47:15;94386.88;;;19.82;89.46
55590;BME280;41452;42.780;23.116;2022-07-06T00:49:40;94384.28;;;19.77;89.10
55590;BME280;41452;42.780;23.116;2022-07-06T00:52:24;94390.16;;;19.73;89.04
55590;BME280;41452;42.780;23.116;2022-07-06T00:54:50;94380.31;;;19.74;89.24
55590;BME280;41452;42.780;23.116;2022-07-06T00:57:16;94387.50;;;19.73;88.87
55590;BME280;41452;42.780;23.116;2022-07-06T00:59:43;94384.84;;;19.73;88.67
55590;BME280;41452;42.780;23.116;2022-07-06T01:02:08;94382.47;;;19.72;88.30
55590;BME280;41452;42.780;23.116;2022-07-06T01:04:33;94393.13;;;19.72;88.18
55590;BME280;41452;42.780;23.116;2022-07-06T01:07:00;94397.19;;;19.64;88.11
55590;BME280;41452;42.780;23.116;2022-07-06T01:09:27;94382.69;;;19.51;88.20
55590;BME280;41452;42.780;23.116;2022-07-06T01:11:53;94387.97;;;19.56;88.18
55590;BME280;41452;42.780;23.116;2022-07-06T01:14:19;94382.94;;;19.55;88.20
55590;BME280;41452;42.780;23.116;2022-07-06T01:16:45;94386.44;;;19.50;87.64
55590;BME280;41452;42.780;23.116;2022-07-06T01:19:10;94378.72;;;19.49;88.07
55590;BME280;41452;42.780;23.116;2022-07-06T01:21:37;94376.66;;;19.46;89.01
55590;BME280;41452;42.780;23.116;2022-07-06T01:24:03;94374.81;;;19.41;88.73
55590;BME280;41452;42.780;23.116;2022-07-06T01:26:29;94377.03;;;19.34;88.74
55590;BME280;41452;42.780;23.116;2022-07-06T01:28:55;94374.44;;;19.29;88.98
55590;BME280;41452;42.780;23.116;2022-07-06T01:31:22;94371.81;;;19.24;88.91
55590;BME280;41452;42.780;23.116;2022-07-06T01:33:49;94368.44;;;19.18;88.45
55590;BME280;41452;42.780;23.116;2022-07-06T01:36:16;94365.84;;;19.13;89.00
55590;BME280;41452;42.780;23.116;2022-07-06T01:41:10;94362.31;;;18.93;90.57
55590;BME280;41452;42.780;23.116;2022-07-06T01:43:37;94362.09;;;18.90;90.69
55590;BME280;41452;42.780;23.116;2022-07-06T01:46:02;94353.88;;;18.86;92.25
55590;BME280;41452;42.780;23.116;2022-07-06T01:48:27;94344.09;;;18.82;92.15
55590;BME280;41452;42.780;23.116;2022-07-06T01:50:53;94353.34;;;18.84;92.01
55590;BME280;41452;42.780;23.116;2022-07-06T01:53:18;94344.09;;;18.82;91.90
55590;BME280;41452;42.780;23.116;2022-07-06T01:55:44;94342.47;;;18.80;91.87
55590;BME280;41452;42.780;23.116;2022-07-06T01:58:09;94347.28;;;18.78;91.37
55590;BME280;41452;42.780;23.116;2022-07-06T02:00:34;94345.69;;;18.77;91.44
55590;BME280;41452;42.780;23.116;2022-07-06T02:03:00;94347.03;;;18.75;91.35
55590;BME280;41452;42.780;23.116;2022-07-06T02:05:25;94330.91;;;18.66;91.83
55590;BME280;41452;42.780;23.116;2022-07-06T02:07:50;94340.41;;;18.72;91.43
55590;BME280;41452;42.780;23.116;2022-07-06T02:10:16;94344.94;;;18.72;91.45
55590;BME280;41452;42.780;23.116;2022-07-06T02:12:41;94340.41;;;18.72;91.52
55590;BME280;41452;42.780;23.116;2022-07-06T02:15:07;94340.41;;;18.72;91.16
55590;BME280;41452;42.780;23.116;2022-07-06T02:17:33;94348.59;;;18.76;91.17
55590;BME280;41452;42.780;23.116;2022-07-06T02:19:58;94351.84;;;18.73;90.76
55590;BME280;41452;42.780;23.116;2022-07-06T02:22:23;94356.66;;;18.71;90.90
55590;BME280;41452;42.780;23.116;2022-07-06T02:24:49;94363.84;;;18.70;90.53
55590;BME280;41452;42.780;23.116;2022-07-06T02:27:14;94362.78;;;18.71;90.60
55590;BME280;41452;42.780;23.116;2022-07-06T02:29:40;94351.84;;;18.73;90.49
55590;BME280;41452;42.780;23.116;2022-07-06T02:32:05;94351.84;;;18.73;90.42
55590;BME280;41452;42.780;23.116;2022-07-06T02:34:31;94347.38;;;18.68;90.56
55590;BME280;41452;42.780;23.116;2022-07-06T02:36:56;94345.50;;;18.69;90.00
55590;BME280;41452;42.780;23.116;2022-07-06T02:39:21;94350.03;;;18.68;89.92
55590;BME280;41452;42.780;23.116;2022-07-06T02:41:47;94343.69;;;18.64;90.11
55590;BME280;41452;42.780;23.116;2022-07-06T02:44:12;94349.31;;;18.57;89.55
55590;BME280;41452;42.780;23.116;2022-07-06T02:46:37;94349.91;;;18.49;89.90
55590;BME280;41452;42.780;23.116;2022-07-06T02:49:03;94352.66;;;18.44;90.10
55590;BME280;41452;42.780;23.116;2022-07-06T02:51:28;94343.63;;;18.40;90.60
55590;BME280;41452;42.780;23.116;2022-07-06T02:53:54;94353.28;;;18.31;91.13
55590;BME280;41452;42.780;23.116;2022-07-06T02:56:19;94347.50;;;18.23;93.11
55590;BME280;41452;42.780;23.116;2022-07-06T02:58:44;94346.25;;;18.11;93.26
55590;BME280;41452;42.780;23.116;2022-07-06T03:01:10;94352.94;;;18.03;94.36
55590;BME280;41452;42.780;23.116;2022-07-06T03:03:35;94350.34;;;17.98;95.09
55590;BME280;41452;42.780;23.116;2022-07-06T03:06:00;94345.56;;;17.95;96.47
55590;BME280;41452;42.780;23.116;2022-07-06T03:08:26;94343.97;;;17.94;96.70
55590;BME280;41452;42.780;23.116;2022-07-06T03:10:51;94352.47;;;17.96;97.27
55590;BME280;41452;42.780;23.116;2022-07-06T03:13:17;94349.28;;;17.94;96.94
55590;BME280;41452;42.780;23.116;2022-07-06T03:15:42;94341.34;;;17.83;97.33
55590;BME280;41452;42.780;23.116;2022-07-06T03:18:07;94352.72;;;17.94;97.34
55590;BME280;41452;42.780;23.116;2022-07-06T03:20:33;94354.09;;;17.92;97.69
55590;BME280;41452;42.780;23.116;2022-07-06T03:22:58;94357.00;;;17.90;97.93
55590;BME280;41452;42.780;23.116;2022-07-06T03:25:23;94367.41;;;17.86;97.95
55590;BME280;41452;42.780;23.116;2022-07-06T03:27:49;94363.94;;;17.81;98.07
55590;BME280;41452;42.780;23.116;2022-07-06T03:30:14;94368.22;;;17.82;98.03
55590;BME280;41452;42.780;23.116;2022-07-06T03:32:39;94371.69;;;17.72;97.96
55590;BME280;41452;42.780;23.116;2022-07-06T03:35:05;94359.56;;;17.61;98.43
55590;BME280;41452;42.780;23.116;2022-07-06T03:37:32;94380.81;;;17.61;98.92
55590;BME280;41452;42.780;23.116;2022-07-06T03:39:57;94373.38;;;17.58;99.11
55590;BME280;41452;42.780;23.116;2022-07-06T03:42:22;94375.25;;;17.52;99.32
55590;BME280;41452;42.780;23.116;2022-07-06T03:44:48;94388.25;;;17.54;99.98
55590;BME280;41452;42.780;23.116;2022-07-06T03:47:13;94379.25;;;17.49;100.00
55590;BME280;41452;42.780;23.116;2022-07-06T03:49:38;94386.41;;;17.54;100.00
55590;BME280;41452;42.780;23.116;2022-07-06T03:52:04;94391.44;;;17.56;100.00
55590;BME280;41452;42.780;23.116;2022-07-06T03:54:30;94392.75;;;17.53;100.00
55590;BME280;41452;42.780;23.116;2022-07-06T03:56:56;94396.75;;;17.56;100.00
55590;BME280;41452;42.780;23.116;2022-07-06T03:59:21;94393.84;;;17.52;100.00
55590;BME280;41452;42.780;23.116;2022-07-06T04:01:46;94397.28;;;17.53;100.00
55590;BME280;41452;42.780;23.116;2022-07-06T04:04:12;94389.06;;;17.49;100.00
55590;BME280;41452;42.780;23.116;2022-07-06T04:06:37;94394.63;;;17.58;100.00
55590;BME280;41452;42.780;23.116;2022-07-06T04:09:03;94399.66;;;17.59;100.00
55590;BME280;41452;42.780;23.116;2022-07-06T04:11:29;94400.72;;;17.53;100.00
55590;BME280;41452;42.780;23.116;2022-07-06T04:13:55;94399.91;;;17.58;100.00
55590;BME280;41452;42.780;23.116;2022-07-06T04:16:20;94408.13;;;17.61;100.00
55590;BME280;41452;42.780;23.116;2022-07-06T04:18:46;94405.75;;;17.60;100.00
55590;BME280;41452;42.780;23.116;2022-07-06T04:21:11;94411.56;;;17.62;100.00
55590;BME280;41452;42.780;23.116;2022-07-06T04:23:37;94416.88;;;17.67;100.00
55590;BME280;41452;42.780;23.116;2022-07-06T04:26:02;94412.09;;;17.64;100.00
55590;BME280;41452;42.780;23.116;2022-07-06T04:28:27;94432.75;;;17.77;100.00
55590;BME280;41452;42.780;23.116;2022-07-06T04:30:53;94427.97;;;17.79;100.00
55590;BME280;41452;42.780;23.116;2022-07-06T04:33:18;94434.63;;;17.82;100.00
55590;BME280;41452;42.780;23.116;2022-07-06T04:35:44;94440.22;;;17.85;100.00
55590;BME280;41452;42.780;23.116;2022-07-06T04:38:09;94443.88;;;17.84;100.00
55590;BME280;41452;42.780;23.116;2022-07-06T04:40:34;94439.13;;;17.81;100.00
55590;BME280;41452;42.780;23.116;2022-07-06T04:43:00;94441.25;;;17.79;100.00
55590;BME280;41452;42.780;23.116;2022-07-06T04:45:26;94443.38;;;17.82;100.00
55590;BME280;41452;42.780;23.116;2022-07-06T04:47:51;94443.38;;;17.88;100.00
55590;BME280;41452;42.780;23.116;2022-07-06T04:50:17;94442.03;;;17.90;100.00
55590;BME280;41452;42.780;23.116;2022-07-06T04:52:42;94439.63;;;17.89;100.00
55590;BME280;41452;42.780;23.116;2022-07-06T04:55:08;94459.28;;;17.98;100.00
55590;BME280;41452;42.780;23.116;2022-07-06T04:57:34;94447.81;;;18.02;100.00
55590;BME280;41452;42.780;23.116;2022-07-06T05:00:00;94452.59;;;18.05;100.00
55590;BME280;41452;42.780;23.116;2022-07-06T05:02:26;94444.06;;;18.09;100.00
55590;BME280;41452;42.780;23.116;2022-07-06T05:04:51;94452.28;;;18.12;100.00
55590;BME280;41452;42.780;23.116;2022-07-06T05:07:18;94455.97;;;18.16;100.00
55590;BME280;41452;42.780;23.116;2022-07-06T05:09:44;94455.09;;;18.26;100.00
55590;BME280;41452;42.780;23.116;2022-07-06T05:12:10;94462.81;;;18.28;100.00
55590;BME280;41452;42.780;23.116;2022-07-06T05:14:35;94462.28;;;18.31;100.00
55590;BME280;41452;42.780;23.116;2022-07-06T05:17:02;94458.56;;;18.32;100.00
55590;BME280;41452;42.780;23.116;2022-07-06T05:19:27;94460.63;;;18.35;100.00
55590;BME280;41452;42.780;23.116;2022-07-06T05:21:53;94454.28;;;18.31;100.00
55590;BME280;41452;42.780;23.116;2022-07-06T05:24:18;94431.53;;;18.14;100.00
55590;BME280;41452;42.780;23.116;2022-07-06T05:26:44;94449.75;;;18.31;100.00
55590;BME280;41452;42.780;23.116;2022-07-06T05:29:10;94455.06;;;18.36;100.00
55590;BME280;41452;42.780;23.116;2022-07-06T05:31:35;94456.91;;;18.36;100.00
55590;BME280;41452;42.780;23.116;2022-07-06T05:34:01;94454.78;;;18.38;100.00
55590;BME280;41452;42.780;23.116;2022-07-06T05:36:26;94461.09;;;18.47;100.00
55590;BME280;41452;42.780;23.116;2022-07-06T05:38:51;94461.38;;;18.46;100.00
55590;BME280;41452;42.780;23.116;2022-07-06T05:41:17;94470.66;;;18.48;100.00
55590;BME280;41452;42.780;23.116;2022-07-06T05:43:42;94470.66;;;18.48;100.00
55590;BME280;41452;42.780;23.116;2022-07-06T05:46:08;94454.25;;;18.36;100.00
55590;BME280;41452;42.780;23.116;2022-07-06T05:48:33;94473.25;;;18.58;100.00
55590;BME280;41452;42.780;23.116;2022-07-06T05:51:17;94474.53;;;18.66;100.00
55590;BME280;41452;42.780;23.116;2022-07-06T05:53:43;94476.31;;;18.76;100.00
55590;BME280;41452;42.780;23.116;2022-07-06T05:56:08;94489.84;;;18.85;100.00
55590;BME280;41452;42.780;23.116;2022-07-06T05:58:34;94481.34;;;18.77;98.15
55590;BME280;41452;42.780;23.116;2022-07-06T06:00:59;94448.53;;;18.53;96.52
55590;BME280;41452;42.780;23.116;2022-07-06T06:03:25;94470.81;;;18.67;97.46
55590;BME280;41452;42.780;23.116;2022-07-06T06:05:50;94485.13;;;18.71;98.75
55590;BME280;41452;42.780;23.116;2022-07-06T06:08:16;94477.13;;;18.76;96.83
55590;BME280;41452;42.780;23.116;2022-07-06T06:10:41;94465.19;;;18.69;97.73
55590;BME280;41452;42.780;23.116;2022-07-06T06:13:07;94484.25;;;18.81;96.69
55590;BME280;41452;42.780;23.116;2022-07-06T06:15:32;94483.22;;;18.77;96.34
55590;BME280;41452;42.780;23.116;2022-07-06T06:17:58;94486.41;;;18.79;96.11
55590;BME280;41452;42.780;23.116;2022-07-06T06:20:23;94474.41;;;18.87;97.31
55590;BME280;41452;42.780;23.116;2022-07-06T06:22:57;94477.34;;;18.85;97.45
55590;BME280;41452;42.780;23.116;2022-07-06T06:25:36;94473.59;;;18.81;95.79
55590;BME280;41452;42.780;23.116;2022-07-06T06:28:04;94474.22;;;18.73;95.56
55590;BME280;41452;42.780;23.116;2022-07-06T06:30:30;94476.59;;;18.74;94.94
55590;BME280;41452;42.780;23.116;2022-07-06T06:33:16;94472.84;;;18.75;94.97
55590;BME280;41452;42.780;23.116;2022-07-06T06:35:44;94483.78;;;18.74;93.96
55590;BME280;41452;42.780;23.116;2022-07-06T06:38:09;94476.25;;;18.81;95.75
55590;BME280;41452;42.780;23.116;2022-07-06T06:40:35;94487.41;;;18.88;95.31
55590;BME280;41452;42.780;23.116;2022-07-06T06:43:00;94479.44;;;18.88;95.22
55590;BME280;41452;42.780;23.116;2022-07-06T06:45:26;94474.66;;;18.90;93.62
55590;BME280;41452;42.780;23.116;2022-07-06T06:47:51;94474.81;;;18.99;94.57
55590;BME280;41452;42.780;23.116;2022-07-06T06:50:17;94441.16;;;18.84;93.47
55590;BME280;41452;42.780;23.116;2022-07-06T06:52:42;94464.94;;;19.05;93.75
55590;BME280;41452;42.780;23.116;2022-07-06T06:55:09;94458.72;;;19.14;94.70
55590;BME280;41452;42.780;23.116;2022-07-06T06:57:35;94455.25;;;19.14;94.34
55590;BME280;41452;42.780;23.116;2022-07-06T07:00:00;94467.94;;;19.22;94.57
55590;BME280;41452;42.780;23.116;2022-07-06T07:02:26;94456.00;;;19.19;92.22
55590;BME280;41452;42.780;23.116;2022-07-06T07:04:52;94467.72;;;19.18;91.93
55590;BME280;41452;42.780;23.116;2022-07-06T07:07:17;94469.81;;;19.22;93.43
55590;BME280;41452;42.780;23.116;2022-07-06T07:09:42;94466.59;;;19.25;93.75
55590;BME280;41452;42.780;23.116;2022-07-06T07:12:08;94460.50;;;19.24;93.02
55590;BME280;41452;42.780;23.116;2022-07-06T07:14:35;94462.53;;;19.32;94.32
55590;BME280;41452;42.780;23.116;2022-07-06T07:17:00;94454.53;;;19.32;93.10
55590;BME280;41452;42.780;23.116;2022-07-06T07:19:26;94437.03;;;19.26;92.40
55590;BME280;41452;42.780;23.116;2022-07-06T07:21:51;94461.13;;;19.40;92.83
55590;BME280;41452;42.780;23.116;2022-07-06T07:24:16;94452.28;;;19.45;93.68
55590;BME280;41452;42.780;23.116;2022-07-06T07:26:42;94433.47;;;19.36;93.07
55590;BME280;41452;42.780;23.116;2022-07-06T07:29:07;94456.13;;;19.57;93.94
55590;BME280;41452;42.780;23.116;2022-07-06T07:31:33;94453.41;;;19.63;92.84
55590;BME280;41452;42.780;23.116;2022-07-06T07:33:58;94451.84;;;19.62;93.57
55590;BME280;41452;42.780;23.116;2022-07-06T07:36:24;94447.25;;;19.67;91.67
55590;BME280;41452;42.780;23.116;2022-07-06T07:38:50;94459.16;;;19.75;92.01
55590;BME280;41452;42.780;23.116;2022-07-06T07:41:15;94456.66;;;19.84;93.88
55590;BME280;41452;42.780;23.116;2022-07-06T07:43:42;94442.56;;;19.83;93.75
55590;BME280;41452;42.780;23.116;2022-07-06T07:46:07;94448.53;;;19.94;93.06
55590;BME280;41452;42.780;23.116;2022-07-06T07:48:33;94458.34;;;19.99;91.09
55590;BME280;41452;42.780;23.116;2022-07-06T07:50:58;94453.66;;;19.90;90.97
55590;BME280;41452;42.780;23.116;2022-07-06T07:53:23;94458.69;;;19.92;90.52
55590;BME280;41452;42.780;23.116;2022-07-06T07:55:49;94459.66;;;20.01;92.28
55590;BME280;41452;42.780;23.116;2022-07-06T07:58:14;94466.03;;;20.00;89.03
55590;BME280;41452;42.780;23.116;2022-07-06T08:00:39;94468.16;;;20.03;90.35
55590;BME280;41452;42.780;23.116;2022-07-06T08:03:05;94464.13;;;20.06;90.54
55590;BME280;41452;42.780;23.116;2022-07-06T08:05:30;94467.88;;;20.05;89.94
55590;BME280;41452;42.780;23.116;2022-07-06T08:07:56;94469.47;;;20.06;89.09
55590;BME280;41452;42.780;23.116;2022-07-06T08:10:21;94469.16;;;20.07;90.03
55590;BME280;41452;42.780;23.116;2022-07-06T08:12:47;94462.75;;;20.08;89.29
55590;BME280;41452;42.780;23.116;2022-07-06T08:15:12;94473.56;;;20.17;89.48
55590;BME280;41452;42.780;23.116;2022-07-06T08:17:38;94475.38;;;20.22;89.18
55590;BME280;41452;42.780;23.116;2022-07-06T08:20:05;94474.50;;;20.26;90.70
55590;BME280;41452;42.780;23.116;2022-07-06T08:22:31;94475.06;;;20.23;87.92
55590;BME280;41452;42.780;23.116;2022-07-06T08:24:56;94468.94;;;20.23;88.10
55590;BME280;41452;42.780;23.116;2022-07-06T08:27:21;94470.41;;;20.15;88.58
55590;BME280;41452;42.780;23.116;2022-07-06T08:29:47;94447.97;;;19.97;89.17
55590;BME280;41452;42.780;23.116;2022-07-06T08:32:12;94463.25;;;20.10;88.40
55590;BME280;41452;42.780;23.116;2022-07-06T08:34:38;94461.69;;;20.09;89.78
55590;BME280;41452;42.780;23.116;2022-07-06T08:37:03;94464.50;;;20.18;90.63
55590;BME280;41452;42.780;23.116;2022-07-06T08:39:29;94472.84;;;20.30;90.34
55590;BME280;41452;42.780;23.116;2022-07-06T08:41:55;94471.56;;;20.28;88.43
55590;BME280;41452;42.780;23.116;2022-07-06T08:44:23;94463.56;;;20.28;87.68
55590;BME280;41452;42.780;23.116;2022-07-06T08:46:49;94468.03;;;20.32;86.13
55590;BME280;41452;42.780;23.116;2022-07-06T08:49:17;94475.97;;;20.38;87.12
55590;BME280;41452;42.780;23.116;2022-07-06T08:51:45;94483.16;;;20.37;86.39
55590;BME280;41452;42.780;23.116;2022-07-06T08:54:11;94488.91;;;20.44;87.79
55590;BME280;41452;42.780;23.116;2022-07-06T08:56:36;94475.50;;;20.49;87.41
55590;BME280;41452;42.780;23.116;2022-07-06T08:59:02;94463.91;;;20.40;86.57
55590;BME280;41452;42.780;23.116;2022-07-06T09:01:29;94493.13;;;20.50;86.09
55590;BME280;41452;42.780;23.116;2022-07-06T09:03:55;94485.75;;;20.42;85.46
55590;BME280;41452;42.780;23.116;2022-07-06T09:06:24;94485.19;;;20.45;86.83
55590;BME280;41452;42.780;23.116;2022-07-06T09:08:50;94485.97;;;20.46;88.83
55590;BME280;41452;42.780;23.116;2022-07-06T09:11:17;94480.84;;;20.49;87.89
55590;BME280;41452;42.780;23.116;2022-07-06T09:13:43;94480.28;;;20.52;87.12
55590;BME280;41452;42.780;23.116;2022-07-06T09:16:10;94476.72;;;20.57;86.03
55590;BME280;41452;42.780;23.116;2022-07-06T09:18:37;94486.13;;;20.55;85.78
55590;BME280;41452;42.780;23.116;2022-07-06T09:21:04;94478.69;;;20.51;85.25
55590;BME280;41452;42.780;23.116;2022-07-06T09:23:30;94477.25;;;20.59;88.30
55590;BME280;41452;42.780;23.116;2022-07-06T09:25:56;94471.00;;;20.69;85.81
55590;BME280;41452;42.780;23.116;2022-07-06T09:28:21;94471.03;;;20.83;87.25
55590;BME280;41452;42.780;23.116;2022-07-06T09:30:46;94470.00;;;20.98;85.49
55590;BME280;41452;42.780;23.116;2022-07-06T09:33:17;94470.41;;;21.05;84.66
55590;BME280;41452;42.780;23.116;2022-07-06T09:35:42;94468.16;;;21.12;83.50
55590;BME280;41452;42.780;23.116;2022-07-06T09:38:13;94465.47;;;21.12;81.88
55590;BME280;41452;42.780;23.116;2022-07-06T09:40:43;94471.34;;;21.14;81.97
55590;BME280;41452;42.780;23.116;2022-07-06T09:43:16;94468.34;;;21.16;83.50
55590;BME280;41452;42.780;23.116;2022-07-06T09:45:45;94471.22;;;21.19;83.45
55590;BME280;41452;42.780;23.116;2022-07-06T09:48:20;94472.03;;;21.20;83.71
55590;BME280;41452;42.780;23.116;2022-07-06T09:51:00;94459.38;;;21.25;84.26
55590;BME280;41452;42.780;23.116;2022-07-06T09:53:29;94454.25;;;21.43;84.56
55590;BME280;41452;42.780;23.116;2022-07-06T09:55:56;94436.25;;;21.35;82.59
55590;BME280;41452;42.780;23.116;2022-07-06T09:58:24;94452.66;;;21.42;80.55
55590;BME280;41452;42.780;23.116;2022-07-06T10:00:49;94453.31;;;21.53;81.68
55590;BME280;41452;42.780;23.116;2022-07-06T10:03:16;94458.16;;;21.64;79.78
55590;BME280;41452;42.780;23.116;2022-07-06T10:05:45;94451.31;;;21.72;80.50
55590;BME280;41452;42.780;23.116;2022-07-06T10:08:15;94463.22;;;21.80;81.43
55590;BME280;41452;42.780;23.116;2022-07-06T10:10:42;94436.19;;;21.68;79.40
55590;BME280;41452;42.780;23.116;2022-07-06T10:13:08;94455.69;;;21.82;79.06
55590;BME280;41452;42.780;23.116;2022-07-06T10:15:37;94457.25;;;21.97;80.41
55590;BME280;41452;42.780;23.116;2022-07-06T10:18:05;94441.69;;;21.99;78.82
55590;BME280;41452;42.780;23.116;2022-07-06T10:20:33;94448.09;;;22.12;80.22
55590;BME280;41452;42.780;23.116;2022-07-06T10:23:00;94441.56;;;22.18;79.12
55590;BME280;41452;42.780;23.116;2022-07-06T10:25:27;94441.69;;;22.27;78.67
55590;BME280;41452;42.780;23.116;2022-07-06T10:27:54;94441.56;;;22.32;77.63
55590;BME280;41452;42.780;23.116;2022-07-06T10:30:19;94437.47;;;22.34;77.31
55590;BME280;41452;42.780;23.116;2022-07-06T10:32:47;94444.72;;;22.34;71.61
55590;BME280;41452;42.780;23.116;2022-07-06T10:35:14;94453.44;;;22.39;75.87
55590;BME280;41452;42.780;23.116;2022-07-06T10:37:40;94447.47;;;22.43;74.24
55590;BME280;41452;42.780;23.116;2022-07-06T10:40:06;94454.03;;;22.36;76.43
55590;BME280;41452;42.780;23.116;2022-07-06T10:43:01;94451.44;;;22.31;73.57
55590;BME280;41452;42.780;23.116;2022-07-06T10:50:36;94444.25;;;22.18;75.23
55590;BME280;41452;42.780;23.116;2022-07-06T10:53:01;94438.47;;;22.25;74.90
55590;BME280;41452;42.780;23.116;2022-07-06T10:55:28;94445.31;;;22.31;74.35
55590;BME280;41452;42.780;23.116;2022-07-06T10:57:55;94439.94;;;22.45;74.87
55590;BME280;41452;42.780;23.116;2022-07-06T11:00:20;94449.81;;;22.58;72.69
55590;BME280;41452;42.780;23.116;2022-07-06T11:02:46;94438.06;;;22.68;71.98
55590;BME280;41452;42.780;23.116;2022-07-06T11:05:11;94437.81;;;22.78;74.11
55590;BME280;41452;42.780;23.116;2022-07-06T11:07:49;94437.13;;;22.95;73.04
55590;BME280;41452;42.780;23.116;2022-07-06T11:10:15;94442.94;;;22.88;70.88
55590;BME280;41452;42.780;23.116;2022-07-06T11:12:44;94441.16;;;22.84;70.82
55590;BME280;41452;42.780;23.116;2022-07-06T11:15:10;94441.22;;;22.92;70.92
55590;BME280;41452;42.780;23.116;2022-07-06T11:17:35;94439.06;;;23.03;72.87
55590;BME280;41452;42.780;23.116;2022-07-06T11:20:11;94422.75;;;23.05;72.32
55590;BME280;41452;42.780;23.116;2022-07-06T11:22:37;94425.63;;;23.17;72.07
55590;BME280;41452;42.780;23.116;2022-07-06T11:25:04;94428.50;;;23.21;69.60
55590;BME280;41452;42.780;23.116;2022-07-06T11:27:33;94426.78;;;23.25;67.21
55590;BME280;41452;42.780;23.116;2022-07-06T11:30:00;94416.19;;;23.20;69.47
55590;BME280;41452;42.780;23.116;2022-07-06T11:32:26;94410.69;;;23.25;73.83
55590;BME280;41452;42.780;23.116;2022-07-06T11:34:52;94410.13;;;23.37;75.19
55590;BME280;41452;42.780;23.116;2022-07-06T11:37:20;94418.81;;;23.42;70.57
55590;BME280;41452;42.780;23.116;2022-07-06T11:39:48;94412.50;;;23.38;70.07
55590;BME280;41452;42.780;23.116;2022-07-06T11:42:16;94407.16;;;23.38;71.95
55590;BME280;41452;42.780;23.116;2022-07-06T11:44:42;94413.09;;;23.35;69.39
55590;BME280;41452;42.780;23.116;2022-07-06T11:47:09;94385.38;;;23.31;70.92
55590;BME280;41452;42.780;23.116;2022-07-06T11:49:36;94407.94;;;23.39;70.40
55590;BME280;41452;42.780;23.116;2022-07-06T11:52:10;94396.13;;;23.48;68.92
55590;BME280;41452;42.780;23.116;2022-07-06T11:54:36;94394.41;;;23.52;71.56
55590;BME280;41452;42.780;23.116;2022-07-06T11:57:02;94378.78;;;23.46;72.54
55590;BME280;41452;42.780;23.116;2022-07-06T11:59:35;94393.81;;;23.64;69.10
55590;BME280;41452;42.780;23.116;2022-07-06T12:04:27;94388.00;;;23.71;68.92
55590;BME280;41452;42.780;23.116;2022-07-06T12:06:53;94380.22;;;23.61;70.38
55590;BME280;41452;42.780;23.116;2022-07-06T12:09:18;94388.91;;;23.58;68.84
55590;BME280;41452;42.780;23.116;2022-07-06T12:11:46;94380.88;;;23.58;68.76
55590;BME280;41452;42.780;23.116;2022-07-06T12:14:19;94402.63;;;23.56;70.00
55590;BME280;41452;42.780;23.116;2022-07-06T12:16:46;94396.00;;;23.62;71.09
55590;BME280;41452;42.780;23.116;2022-07-06T12:19:13;94387.53;;;23.69;66.83
55590;BME280;41452;42.780;23.116;2022-07-06T12:21:49;94386.75;;;23.77;69.22
55590;BME280;41452;42.780;23.116;2022-07-06T12:26:43;94389.09;;;23.79;69.42
55590;BME280;41452;42.780;23.116;2022-07-06T12:29:10;94393.44;;;23.88;67.61
55590;BME280;41452;42.780;23.116;2022-07-06T12:31:43;94383.81;;;23.96;66.19
55590;BME280;41452;42.780;23.116;2022-07-06T12:34:14;94383.81;;;23.96;62.84
55590;BME280;41452;42.780;23.116;2022-07-06T12:36:51;94371.22;;;23.97;62.86
55590;BME280;41452;42.780;23.116;2022-07-06T12:39:20;94376.41;;;24.02;64.09
55590;BME280;41452;42.780;23.116;2022-07-06T12:44:12;94369.31;;;24.06;65.33
55590;BME280;41452;42.780;23.116;2022-07-06T12:46:39;94374.22;;;24.04;65.03
55590;BME280;41452;42.780;23.116;2022-07-06T12:49:20;94367.56;;;24.10;63.78
55590;BME280;41452;42.780;23.116;2022-07-06T12:54:16;94376.41;;;24.19;63.65
55590;BME280;41452;42.780;23.116;2022-07-06T12:57:04;94369.47;;;24.18;64.02
55590;BME280;41452;42.780;23.116;2022-07-06T12:59:32;94362.22;;;24.10;62.15
55590;BME280;41452;42.780;23.116;2022-07-06T13:01:58;94361.59;;;24.13;63.75